Time;durP1;ratioP1;P1;durP2;ratioP2;P2;SDS_P1;SDS_P2;PMS_P1;PMS_P2;Temp;Humidity;BMP_temperature;BMP_pressure;BME280_temperature;BME280_humidity;BME280_pressure;Samples;Min_cycle;Max_cycle;Signal;HPM_P1;HPM_P2
2022/11/16 00:00:21;;;;;;;85.45;27.67;;;;;;;;;;5072838;28;20139;-65
2022/11/16 00:02:50;;;;;;;71.40;23.45;;;;;;;;;;5072793;28;20027;-65
2022/11/16 00:05:17;;;;;;;65.38;22.15;;;;;;;;;;5072690;28;20020;-65
2022/11/16 00:07:43;;;;;;;75.45;22.77;;;;;;;;;;5069994;28;20044;-65
2022/11/16 00:10:10;;;;;;;67.95;22.27;;;;;;;;;;5072641;28;20020;-65
2022/11/16 00:12:36;;;;;;;67.25;21.73;;;;;;;;;;5072003;28;20438;-65
2022/11/16 00:15:02;;;;;;;58.47;20.02;;;;;;;;;;5072489;28;20024;-65
2022/11/16 00:17:28;;;;;;;53.20;20.33;;;;;;;;;;5072521;28;20028;-65
2022/11/16 00:19:54;;;;;;;55.25;20.10;;;;;;;;;;5072486;28;20023;-65
2022/11/16 00:22:19;;;;;;;51.60;20.05;;;;;;;;;;5072464;28;20020;-65
2022/11/16 00:24:45;;;;;;;49.55;19.27;;;;;;;;;;5072772;28;20021;-66
2022/11/16 00:27:11;;;;;;;49.28;18.88;;;;;;;;;;5073629;28;20060;-68
2022/11/16 00:29:36;;;;;;;52.50;21.70;;;;;;;;;;5073503;28;20060;-69
2022/11/16 00:32:02;;;;;;;51.95;18.45;;;;;;;;;;5071802;28;20089;-69
2022/11/16 00:34:27;;;;;;;51.75;20.27;;;;;;;;;;5072093;28;20033;-69
2022/11/16 00:36:53;;;;;;;55.83;21.00;;;;;;;;;;5072067;28;20037;-70
2022/11/16 00:39:19;;;;;;;38.95;15.88;;;;;;;;;;5072049;28;20027;-68
2022/11/16 00:41:46;;;;;;;50.08;20.00;;;;;;;;;;5071876;28;20028;-68
2022/11/16 00:44:11;;;;;;;56.25;19.85;;;;;;;;;;5071916;28;20397;-69
2022/11/16 00:46:37;;;;;;;50.58;19.55;;;;;;;;;;5071920;28;20111;-69
2022/11/16 00:49:04;;;;;;;51.70;18.65;;;;;;;;;;5071913;28;20028;-68
2022/11/16 00:51:30;;;;;;;47.92;17.20;;;;;;;;;;5071800;28;20016;-69
2022/11/16 00:53:56;;;;;;;52.33;19.25;;;;;;;;;;5071591;28;20617;-68
2022/11/16 00:56:22;;;;;;;46.53;18.20;;;;;;;;;;5071766;28;20206;-69
2022/11/16 00:58:48;;;;;;;36.08;14.23;;;;;;;;;;5071742;28;20495;-68
2022/11/16 01:01:13;;;;;;;54.38;19.17;;;;;;;;;;5072007;28;20031;-67
2022/11/16 01:03:39;;;;;;;49.50;19.13;;;;;;;;;;5072777;28;20032;-69
2022/11/16 01:06:10;;;;;;;51.38;18.85;;;;;;;;;;5072915;28;20036;-68
2022/11/16 01:08:37;;;;;;;50.20;19.35;;;;;;;;;;5072550;28;20036;-68
2022/11/16 01:13:49;;;;;;;56.53;20.73;;;;;;;;;;5072735;28;20043;-69
2022/11/16 01:16:17;;;;;;;48.22;17.80;;;;;;;;;;5072622;28;20029;-69
2022/11/16 01:18:46;;;;;;;55.22;19.80;;;;;;;;;;5072508;28;20029;-66
2022/11/16 01:21:11;;;;;;;62.22;20.58;;;;;;;;;;5072464;28;20024;-68
2022/11/16 01:23:37;;;;;;;59.53;20.33;;;;;;;;;;5072121;28;20025;-69
2022/11/16 01:26:03;;;;;;;61.47;20.63;;;;;;;;;;5071917;28;20108;-67
2022/11/16 01:28:29;;;;;;;38.85;15.85;;;;;;;;;;5071128;28;20476;-68
2022/11/16 01:30:54;;;;;;;53.13;18.90;;;;;;;;;;5071240;28;20115;-65
2022/11/16 01:33:20;;;;;;;60.45;19.05;;;;;;;;;;5072231;28;20446;-69
2022/11/16 01:35:46;;;;;;;57.50;17.65;;;;;;;;;;5072216;28;20082;-64
2022/11/16 01:38:11;;;;;;;44.25;17.90;;;;;;;;;;5071698;28;20104;-65
2022/11/16 01:40:37;;;;;;;57.00;20.20;;;;;;;;;;5070312;28;20047;-64
2022/11/16 01:43:10;;;;;;;68.97;23.77;;;;;;;;;;5071492;28;20074;-64
2022/11/16 01:45:41;;;;;;;59.22;20.38;;;;;;;;;;5071660;28;20031;-65
2022/11/16 01:48:08;;;;;;;49.83;18.63;;;;;;;;;;5071551;28;20056;-64
2022/11/16 01:50:34;;;;;;;58.83;21.15;;;;;;;;;;5071719;28;20387;-65
2022/11/16 01:53:03;;;;;;;48.75;19.13;;;;;;;;;;5071367;28;20107;-65
2022/11/16 01:55:32;;;;;;;56.50;19.92;;;;;;;;;;5071807;28;20363;-64
2022/11/16 01:57:58;;;;;;;55.33;18.63;;;;;;;;;;5071507;28;20029;-65
2022/11/16 02:00:23;;;;;;;41.92;16.60;;;;;;;;;;5071492;28;20048;-64
2022/11/16 02:02:49;;;;;;;48.80;16.50;;;;;;;;;;5071548;28;20431;-65
2022/11/16 02:05:20;;;;;;;50.22;18.38;;;;;;;;;;5071499;28;20024;-65
2022/11/16 02:11:12;;;;;;;35.53;14.90;;;;;;;;;;5072206;28;20142;-65
2022/11/16 02:13:56;;;;;;;48.38;17.05;;;;;;;;;;5071871;28;20467;-68
2022/11/16 02:16:27;;;;;;;42.35;16.17;;;;;;;;;;5071812;28;20054;-67
2022/11/16 02:19:17;;;;;;;44.75;18.00;;;;;;;;;;5071861;28;20099;-67
2022/11/16 02:21:48;;;;;;;;;;;;;;;;;;5071937;28;20028;-68
2022/11/16 02:24:22;;;;;;;;;;;;;;;;;;5072355;28;19932;-68
2022/11/16 02:27:09;;;;;;;35.05;13.15;;;;;;;;;;5071883;28;19913;-68
2022/11/16 02:29:53;;;;;;;47.85;16.67;;;;;;;;;;5071453;28;20040;-67
2022/11/16 02:32:59;;;;;;;54.72;17.80;;;;;;;;;;5071109;28;20432;-68
2022/11/16 02:35:41;;;;;;;53.28;17.67;;;;;;;;;;5029017;28;20067;-65
2022/11/16 02:38:12;;;;;;;55.45;18.70;;;;;;;;;;5033207;28;20052;-69
2022/11/16 02:40:42;;;;;;;61.30;20.80;;;;;;;;;;5033257;28;20056;-64
2022/11/16 02:43:11;;;;;;;57.97;19.73;;;;;;;;;;5033294;28;20047;-64
2022/11/16 02:45:41;;;;;;;49.30;17.73;;;;;;;;;;5033495;28;20033;-65
2022/11/16 02:48:09;;;;;;;;;;;;;;;;;;5033754;28;20064;-64
2022/11/16 02:50:37;;;;;;;49.40;17.02;;;;;;;;;;5032907;28;19917;-65
2022/11/16 02:53:02;;;;;;;51.03;18.42;;;;;;;;;;5033191;28;20520;-65
2022/11/16 02:55:31;;;;;;;48.45;15.98;;;;;;;;;;5033208;28;20086;-65
2022/11/16 02:58:00;;;;;;;46.00;17.67;;;;;;;;;;5032905;28;20061;-64
2022/11/16 03:00:42;;;;;;;42.15;16.13;;;;;;;;;;5032871;28;20096;-65
2022/11/16 03:03:31;;;;;;;29.77;12.35;;;;;;;;;;5032911;28;20045;-65
2022/11/16 03:06:15;;;;;;;38.28;16.65;;;;;;;;;;5032800;28;20033;-65
2022/11/16 03:08:59;;;;;;;33.03;13.38;;;;;;;;;;5041428;28;20032;-64
2022/11/16 03:14:14;;;;;;;28.33;11.05;;;;;;;;;;5074635;28;20036;-64
2022/11/16 03:16:44;;;;;;;28.35;11.98;;;;;;;;;;5074293;28;20100;-64
2022/11/16 03:19:13;;;;;;;32.20;14.68;;;;;;;;;;5074434;28;20024;-68
2022/11/16 03:21:54;;;;;;;32.22;14.38;;;;;;;;;;5074773;28;20040;-68
2022/11/16 03:24:20;;;;;;;27.48;11.63;;;;;;;;;;5074850;28;20029;-68
2022/11/16 03:26:52;;;;;;;35.53;13.80;;;;;;;;;;5074681;28;20032;-68
2022/11/16 03:29:43;;;;;;;33.25;14.25;;;;;;;;;;5074698;28;20044;-68
2022/11/16 03:32:24;;;;;;;24.67;11.32;;;;;;;;;;5032303;28;20073;-68
2022/11/16 03:35:04;;;;;;;25.75;11.68;;;;;;;;;;5032289;28;20036;-68
2022/11/16 03:37:30;;;;;;;33.40;13.97;;;;;;;;;;5032482;28;20412;-69
2022/11/16 03:39:58;;;;;;;25.08;12.82;;;;;;;;;;5031623;28;20046;-67
2022/11/16 03:42:25;;;;;;;23.45;11.95;;;;;;;;;;5014723;28;20495;-65
2022/11/16 03:44:51;;;;;;;32.00;16.55;;;;;;;;;;5031392;28;20476;-67
2022/11/16 03:47:16;;;;;;;30.48;15.52;;;;;;;;;;5030864;28;20120;-64
2022/11/16 03:49:46;;;;;;;31.52;16.30;;;;;;;;;;5031695;28;20046;-64
2022/11/16 03:52:13;;;;;;;18.40;9.53;;;;;;;;;;5032153;28;20167;-64
2022/11/16 03:54:38;;;;;;;27.42;13.13;;;;;;;;;;5032138;28;20325;-64
2022/11/16 03:57:04;;;;;;;29.23;13.23;;;;;;;;;;5031612;28;20404;-64
2022/11/16 03:59:29;;;;;;;23.92;12.02;;;;;;;;;;5031084;28;20124;-64
2022/11/16 04:01:55;;;;;;;26.42;13.02;;;;;;;;;;5031300;28;20404;-68
2022/11/16 04:26:13;;;;;;;30.60;15.05;;;;;;;;;;5053838;28;20044;-67
2022/11/16 04:28:39;;;;;;;33.90;15.75;;;;;;;;;;5053395;28;20032;-67
2022/11/16 04:39:18;;;;;;;30.40;12.93;;;;;;;;;;5072953;28;20067;-68
2022/11/16 04:47:05;;;;;;;27.52;13.20;;;;;;;;;;5073185;28;20120;-68
2022/11/16 04:47:13;;;;;;;23.13;10.90;;;;;;;;;;5072802;28;20403;-68
2022/11/16 04:49:38;;;;;;;24.45;13.25;;;;;;;;;;5073125;28;20056;-67
2022/11/16 04:52:04;;;;;;;30.92;14.18;;;;;;;;;;5073027;28;20116;-67
2022/11/16 04:54:29;;;;;;;28.45;12.45;;;;;;;;;;5072875;28;20463;-65
2022/11/16 04:56:55;;;;;;;28.05;14.55;;;;;;;;;;5072198;28;20043;-64
2022/11/16 04:59:20;;;;;;;26.00;13.35;;;;;;;;;;5071349;28;20112;-64
2022/11/16 05:04:30;;;;;;;28.98;14.30;;;;;;;;;;5072633;28;20036;-65
2022/11/16 05:06:55;;;;;;;31.55;13.00;;;;;;;;;;5072736;28;20383;-65
2022/11/16 05:09:21;;;;;;;34.30;15.43;;;;;;;;;;5072791;28;20029;-64
2022/11/16 05:11:46;;;;;;;30.25;13.77;;;;;;;;;;5072606;28;20021;-65
2022/11/16 05:14:12;;;;;;;29.00;14.15;;;;;;;;;;5072520;28;20029;-66
2022/11/16 05:16:37;;;;;;;26.13;13.27;;;;;;;;;;5072213;28;20356;-65
2022/11/16 05:21:47;;;;;;;30.45;13.60;;;;;;;;;;5072599;28;20040;-65
2022/11/16 05:26:57;;;;;;;30.50;15.10;;;;;;;;;;5072601;28;20085;-64
2022/11/16 05:29:22;;;;;;;25.17;11.90;;;;;;;;;;5071838;28;20021;-66
2022/11/16 05:31:48;;;;;;;25.27;13.65;;;;;;;;;;5071303;28;20370;-64
2022/11/16 05:34:13;;;;;;;26.45;12.93;;;;;;;;;;5071637;28;20494;-64
2022/11/16 05:36:39;;;;;;;26.08;14.52;;;;;;;;;;5071592;28;20043;-64
2022/11/16 05:39:05;;;;;;;25.83;11.88;;;;;;;;;;5072028;28;20383;-65
2022/11/16 05:41:30;;;;;;;27.90;12.38;;;;;;;;;;5071828;28;20036;-65
2022/11/16 05:43:56;;;;;;;26.20;14.02;;;;;;;;;;5072143;28;20409;-65
2022/11/16 05:46:23;;;;;;;25.67;12.93;;;;;;;;;;5072308;28;20029;-64
2022/11/16 05:48:49;;;;;;;26.83;12.52;;;;;;;;;;5072026;28;20017;-64
2022/11/16 05:51:14;;;;;;;24.75;12.88;;;;;;;;;;5072306;28;20033;-67
2022/11/16 05:53:40;;;;;;;27.55;12.80;;;;;;;;;;5072083;28;20025;-68
2022/11/16 05:56:06;;;;;;;24.35;12.20;;;;;;;;;;5071575;28;20474;-64
2022/11/16 05:58:31;;;;;;;24.67;10.52;;;;;;;;;;5071158;28;20028;-64
2022/11/16 06:00:57;;;;;;;20.30;9.00;;;;;;;;;;5071277;28;20020;-64
2022/11/16 06:03:23;;;;;;;25.70;12.93;;;;;;;;;;5071362;28;20032;-65
2022/11/16 06:05:52;;;;;;;22.63;11.40;;;;;;;;;;5071870;28;20482;-69
2022/11/16 06:08:18;;;;;;;17.67;8.23;;;;;;;;;;5071833;28;20108;-68
2022/11/16 06:10:43;;;;;;;23.00;11.57;;;;;;;;;;5072895;28;20024;-67
2022/11/16 06:13:09;;;;;;;21.08;10.52;;;;;;;;;;5075655;28;20028;-67
2022/11/16 06:15:38;;;;;;;15.52;7.45;;;;;;;;;;5076007;28;20025;-67
2022/11/16 06:18:04;;;;;;;25.65;9.68;;;;;;;;;;5075841;28;20040;-68
2022/11/16 06:20:29;;;;;;;20.50;9.38;;;;;;;;;;5075683;28;20028;-68
2022/11/16 06:22:55;;;;;;;13.25;7.03;;;;;;;;;;5075667;28;20464;-68
2022/11/16 06:25:20;;;;;;;17.33;7.30;;;;;;;;;;5075053;28;20025;-68
2022/11/16 06:27:46;;;;;;;21.70;10.27;;;;;;;;;;5074650;28;20081;-66
2022/11/16 06:30:11;;;;;;;17.60;8.88;;;;;;;;;;5074928;28;20028;-65
2022/11/16 06:32:37;;;;;;;21.08;9.23;;;;;;;;;;5074698;28;20082;-67
2022/11/16 06:35:03;;;;;;;18.10;9.27;;;;;;;;;;5075390;28;20459;-68
2022/11/16 06:37:29;;;;;;;21.05;9.23;;;;;;;;;;5075358;28;20519;-67
2022/11/16 06:39:54;;;;;;;18.33;9.45;;;;;;;;;;5074520;28;20044;-68
2022/11/16 06:42:20;;;;;;;18.52;9.23;;;;;;;;;;5074284;28;20105;-68
2022/11/16 06:44:45;;;;;;;18.70;9.23;;;;;;;;;;5074320;28;20032;-67
2022/11/16 06:47:11;;;;;;;19.05;8.82;;;;;;;;;;5074304;28;20463;-68
2022/11/16 06:49:36;;;;;;;12.13;6.85;;;;;;;;;;5075099;28;20028;-69
2022/11/16 06:52:02;;;;;;;20.85;8.38;;;;;;;;;;5075139;28;20107;-69
2022/11/16 06:54:27;;;;;;;18.08;8.93;;;;;;;;;;5075274;28;20506;-68
2022/11/16 06:56:52;;;;;;;19.60;10.43;;;;;;;;;;5074962;28;20033;-67
2022/11/16 06:59:18;;;;;;;11.52;6.68;;;;;;;;;;5074378;28;20060;-68
2022/11/16 07:01:43;;;;;;;26.58;10.20;;;;;;;;;;5074445;28;20017;-65
2022/11/16 07:04:10;;;;;;;17.95;8.25;;;;;;;;;;5074291;28;20522;-65
2022/11/16 07:06:37;;;;;;;17.70;7.68;;;;;;;;;;5074496;28;20031;-65
2022/11/16 07:09:07;;;;;;;15.25;8.27;;;;;;;;;;5075008;28;20031;-64
2022/11/16 07:11:36;;;;;;;14.05;7.68;;;;;;;;;;5073407;28;20032;-66
2022/11/16 07:14:02;;;;;;;15.45;6.72;;;;;;;;;;5074481;28;20028;-64
2022/11/16 07:16:28;;;;;;;16.52;8.18;;;;;;;;;;5074895;28;20173;-65
2022/11/16 07:18:56;;;;;;;17.52;8.50;;;;;;;;;;5074859;28;20028;-65
2022/11/16 07:21:22;;;;;;;17.85;7.53;;;;;;;;;;5074794;28;20552;-65
2022/11/16 07:23:48;;;;;;;12.60;5.70;;;;;;;;;;5073758;28;20032;-67
2022/11/16 07:26:13;;;;;;;21.23;8.50;;;;;;;;;;5074039;28;20448;-65
2022/11/16 07:28:39;;;;;;;18.20;8.52;;;;;;;;;;5073803;28;20024;-65
2022/11/16 07:31:07;;;;;;;16.05;7.85;;;;;;;;;;5073849;28;20546;-65
2022/11/16 07:33:32;;;;;;;15.32;6.90;;;;;;;;;;5073674;28;20028;-65
2022/11/16 07:36:05;;;;;;;17.42;7.85;;;;;;;;;;5074117;28;20440;-65
2022/11/16 07:38:31;;;;;;;13.52;5.82;;;;;;;;;;5074467;28;20539;-64
2022/11/16 07:41:04;;;;;;;12.18;5.47;;;;;;;;;;5074128;28;20049;-68
2022/11/16 07:43:31;;;;;;;16.30;7.13;;;;;;;;;;5074481;28;20115;-66
2022/11/16 07:46:10;;;;;;;19.40;8.48;;;;;;;;;;5074073;28;20024;-68
2022/11/16 07:48:35;;;;;;;14.35;6.88;;;;;;;;;;5074130;28;20033;-66
2022/11/16 07:51:06;;;;;;;10.15;6.53;;;;;;;;;;5074234;28;20490;-67
2022/11/16 07:53:32;;;;;;;;;;;;;;;;;;5074823;28;20402;-68
2022/11/16 07:55:58;;;;;;;18.42;8.05;;;;;;;;;;5072762;28;19919;-68
2022/11/16 07:58:24;;;;;;;13.07;6.55;;;;;;;;;;5074231;28;20027;-67
2022/11/16 08:00:49;;;;;;;18.10;6.60;;;;;;;;;;5074180;28;20502;-68
2022/11/16 08:03:15;;;;;;;19.67;7.40;;;;;;;;;;5074169;28;20029;-69
2022/11/16 08:05:43;;;;;;;13.00;6.25;;;;;;;;;;5074167;28;20081;-66
2022/11/16 08:08:09;;;;;;;20.50;7.38;;;;;;;;;;5073835;28;20028;-68
2022/11/16 08:10:34;;;;;;;13.77;6.55;;;;;;;;;;5073937;28;20029;-68
2022/11/16 08:13:00;;;;;;;11.18;5.82;;;;;;;;;;5073934;28;20074;-64
2022/11/16 08:15:25;;;;;;;18.75;8.45;;;;;;;;;;5073712;28;20060;-67
2022/11/16 08:17:51;;;;;;;18.35;6.13;;;;;;;;;;5073971;28;20054;-65
2022/11/16 08:20:16;;;;;;;14.55;6.70;;;;;;;;;;5073616;28;20028;-66
2022/11/16 08:22:43;;;;;;;17.65;6.07;;;;;;;;;;5051253;28;20468;-66
2022/11/16 08:25:10;;;;;;;14.57;6.25;;;;;;;;;;5062401;28;20376;-65
2022/11/16 08:27:36;;;;;;;13.32;5.00;;;;;;;;;;5069355;28;20055;-65
2022/11/16 08:30:03;;;;;;;14.60;6.28;;;;;;;;;;5068206;28;20056;-65
2022/11/16 08:32:29;;;;;;;14.50;6.18;;;;;;;;;;5068226;28;20028;-68
2022/11/16 08:34:55;;;;;;;12.43;5.80;;;;;;;;;;5068405;28;20117;-66
2022/11/16 08:37:21;;;;;;;12.57;5.68;;;;;;;;;;5069024;28;20029;-65
2022/11/16 08:39:46;;;;;;;11.45;4.63;;;;;;;;;;5067973;28;20055;-65
2022/11/16 08:42:12;;;;;;;10.80;5.47;;;;;;;;;;5069753;28;20024;-66
2022/11/16 08:44:37;;;;;;;8.98;3.97;;;;;;;;;;5069587;28;20020;-65
2022/11/16 08:47:03;;;;;;;12.65;4.68;;;;;;;;;;5068578;28;20040;-67
2022/11/16 08:49:28;;;;;;;8.85;4.22;;;;;;;;;;5070536;28;20086;-65
2022/11/16 08:51:55;;;;;;;13.48;6.03;;;;;;;;;;5069488;28;20051;-68
2022/11/16 08:54:21;;;;;;;11.25;4.95;;;;;;;;;;5068091;28;20032;-66
2022/11/16 08:56:46;;;;;;;18.13;6.32;;;;;;;;;;5067912;28;20028;-67
2022/11/16 08:59:12;;;;;;;20.92;7.32;;;;;;;;;;5069022;28;20032;-69
2022/11/16 09:01:38;;;;;;;8.18;4.25;;;;;;;;;;5068961;28;20103;-69
2022/11/16 09:04:04;;;;;;;14.73;4.75;;;;;;;;;;5069245;28;20115;-68
2022/11/16 09:06:29;;;;;;;11.80;4.53;;;;;;;;;;5069976;28;20020;-68
2022/11/16 09:08:55;;;;;;;10.73;4.53;;;;;;;;;;5067989;28;20060;-65
2022/11/16 09:11:23;;;;;;;14.35;4.43;;;;;;;;;;5069565;28;20456;-65
2022/11/16 09:13:51;;;;;;;6.75;3.38;;;;;;;;;;5068879;28;20111;-67
2022/11/16 09:16:19;;;;;;;8.90;4.57;;;;;;;;;;5069538;28;20025;-65
2022/11/16 09:18:46;;;;;;;8.18;4.60;;;;;;;;;;5068167;28;20036;-64
2022/11/16 09:21:18;;;;;;;9.90;3.75;;;;;;;;;;5069286;28;20021;-65
2022/11/16 09:23:43;;;;;;;10.07;4.60;;;;;;;;;;5066693;28;20450;-64
2022/11/16 09:26:09;;;;;;;8.40;4.10;;;;;;;;;;5069029;28;20048;-65
2022/11/16 09:28:34;;;;;;;11.60;4.93;;;;;;;;;;5067837;28;20020;-65
2022/11/16 09:31:03;;;;;;;9.15;4.15;;;;;;;;;;5068391;28;20031;-69
2022/11/16 09:33:32;;;;;;;14.63;5.85;;;;;;;;;;5067705;28;20131;-69
2022/11/16 09:36:06;;;;;;;12.03;5.90;;;;;;;;;;5068443;28;20032;-66
2022/11/16 09:38:40;;;;;;;9.70;4.85;;;;;;;;;;5068224;28;20036;-65
2022/11/16 09:41:14;;;;;;;13.85;5.95;;;;;;;;;;5068627;28;20070;-67
2022/11/16 09:44:06;;;;;;;8.60;4.03;;;;;;;;;;5068039;28;20495;-67
2022/11/16 09:46:38;;;;;;;10.18;5.05;;;;;;;;;;5061832;28;20174;-66
2022/11/16 09:49:12;;;;;;;9.50;3.83;;;;;;;;;;5068318;28;20020;-67
2022/11/16 09:51:40;;;;;;;8.60;4.18;;;;;;;;;;5067926;28;20399;-67
2022/11/16 09:54:18;;;;;;;7.47;4.20;;;;;;;;;;5067492;28;20101;-68
2022/11/16 09:56:45;;;;;;;15.90;5.40;;;;;;;;;;5067254;28;20491;-67
2022/11/16 09:59:22;;;;;;;12.52;5.60;;;;;;;;;;5067440;28;20475;-68
2022/11/16 10:01:55;;;;;;;7.93;4.50;;;;;;;;;;5067681;28;20028;-65
2022/11/16 10:04:47;;;;;;;7.07;4.13;;;;;;;;;;5068985;28;20031;-65
2022/11/16 10:07:18;;;;;;;6.82;3.75;;;;;;;;;;5067609;28;20029;-68
2022/11/16 10:09:45;;;;;;;7.97;4.20;;;;;;;;;;5068115;28;20109;-68
2022/11/16 10:12:50;;;;;;;10.38;4.38;;;;;;;;;;5068495;28;20041;-68
2022/11/16 10:16:00;;;;;;;5.60;2.70;;;;;;;;;;5067303;28;20032;-68
2022/11/16 10:18:31;;;;;;;8.75;4.05;;;;;;;;;;5026138;28;20121;-68
2022/11/16 10:21:12;;;;;;;7.47;3.65;;;;;;;;;;5025534;28;20064;-68
2022/11/16 10:23:56;;;;;;;8.60;4.18;;;;;;;;;;5024978;28;20519;-65
2022/11/16 10:26:39;;;;;;;11.82;3.88;;;;;;;;;;5026049;28;20041;-65
2022/11/16 10:29:13;;;;;;;8.05;3.90;;;;;;;;;;5025467;28;20045;-65
2022/11/16 10:31:56;;;;;;;5.35;3.20;;;;;;;;;;5024379;28;20026;-65
2022/11/16 10:34:27;;;;;;;13.32;3.55;;;;;;;;;;5025623;28;20112;-64
2022/11/16 10:36:59;;;;;;;7.07;3.72;;;;;;;;;;5025104;28;20483;-65
2022/11/16 10:39:26;;;;;;;7.13;3.70;;;;;;;;;;5024490;28;20485;-64
2022/11/16 10:41:51;;;;;;;9.25;4.32;;;;;;;;;;5026035;28;20053;-65
2022/11/16 10:44:38;;;;;;;8.07;3.80;;;;;;;;;;5025943;28;20397;-64
2022/11/16 10:47:04;;;;;;;7.43;4.35;;;;;;;;;;5024804;28;20041;-64
2022/11/16 10:49:42;;;;;;;7.85;4.13;;;;;;;;;;5052147;28;20033;-64
2022/11/16 10:52:08;;;;;;;13.05;4.20;;;;;;;;;;5068096;28;20097;-65
2022/11/16 10:54:33;;;;;;;7.80;3.53;;;;;;;;;;5067693;28;20132;-65
2022/11/16 10:57:03;;;;;;;7.53;3.38;;;;;;;;;;5068977;28;20020;-64
2022/11/16 10:59:54;;;;;;;6.65;2.20;;;;;;;;;;5071992;28;20036;-67
2022/11/16 11:02:35;;;;;;;8.23;3.72;;;;;;;;;;5070854;28;20032;-64
2022/11/16 11:05:14;;;;;;;7.38;3.50;;;;;;;;;;5071443;28;20020;-68
2022/11/16 11:07:45;;;;;;;8.50;3.90;;;;;;;;;;5070487;28;20119;-65
2022/11/16 11:10:26;;;;;;;;;;;;;;;;;;5071730;28;20096;-64
2022/11/16 11:13:02;;;;;;;8.20;3.30;;;;;;;;;;5070186;28;19927;-65
2022/11/16 11:15:28;;;;;;;6.13;2.72;;;;;;;;;;5071158;28;20048;-67
2022/11/16 11:18:22;;;;;;;12.18;4.00;;;;;;;;;;5068037;28;20067;-67
2022/11/16 11:20:59;;;;;;;5.40;3.08;;;;;;;;;;5067649;28;20032;-68
2022/11/16 11:23:26;;;;;;;10.32;4.00;;;;;;;;;;5070712;28;20021;-68
2022/11/16 11:25:57;;;;;;;8.75;3.90;;;;;;;;;;5069827;28;20490;-69
2022/11/16 11:28:33;;;;;;;9.10;3.88;;;;;;;;;;5070344;28;20036;-68
2022/11/16 11:31:21;;;;;;;5.57;3.28;;;;;;;;;;5071392;28;20461;-65
2022/11/16 11:33:53;;;;;;;7.88;3.80;;;;;;;;;;5068428;28;20036;-66
2022/11/16 11:36:25;;;;;;;6.63;3.28;;;;;;;;;;5069107;28;20041;-65
2022/11/16 11:38:58;;;;;;;8.30;4.00;;;;;;;;;;5069004;28;20020;-65
2022/11/16 11:41:23;;;;;;;9.52;4.18;;;;;;;;;;5070540;28;20048;-68
2022/11/16 11:44:14;;;;;;;6.95;3.67;;;;;;;;;;5069905;28;20031;-69
2022/11/16 11:46:48;;;;;;;8.43;4.10;;;;;;;;;;5070696;28;20060;-69
2022/11/16 11:49:30;;;;;;;10.90;4.20;;;;;;;;;;5069746;28;20051;-66
2022/11/16 11:52:02;;;;;;;6.25;3.25;;;;;;;;;;5069836;28;20024;-69
2022/11/16 11:54:31;;;;;;;7.95;3.30;;;;;;;;;;5074178;28;20025;-70
2022/11/16 11:56:58;;;;;;;11.45;4.22;;;;;;;;;;5074201;28;20476;-69
2022/11/16 11:59:25;;;;;;;7.47;3.42;;;;;;;;;;5074529;28;20388;-69
2022/11/16 12:02:03;;;;;;;5.47;3.13;;;;;;;;;;5072502;28;20070;-69
2022/11/16 12:04:54;;;;;;;9.25;3.17;;;;;;;;;;5074382;28;20090;-69
2022/11/16 12:07:36;;;;;;;5.72;3.17;;;;;;;;;;5074507;28;20039;-69
2022/11/16 12:10:38;;;;;;;7.47;3.55;;;;;;;;;;5073666;28;20029;-67
2022/11/16 12:13:34;;;;;;;5.40;2.78;;;;;;;;;;5074196;28;20503;-69
2022/11/16 12:16:00;;;;;;;7.28;2.17;;;;;;;;;;5073909;28;20024;-68
2022/11/16 12:18:51;;;;;;;7.70;2.53;;;;;;;;;;5074180;28;20463;-69
2022/11/16 12:21:47;;;;;;;5.00;2.20;;;;;;;;;;5071976;28;20040;-69
2022/11/16 12:24:28;;;;;;;7.18;2.08;;;;;;;;;;5073721;28;20065;-68
2022/11/16 12:27:20;;;;;;;6.32;2.60;;;;;;;;;;5073875;28;20048;-67
2022/11/16 12:30:08;;;;;;;7.55;2.50;;;;;;;;;;5073853;28;20104;-68
2022/11/16 12:32:52;;;;;;;4.43;2.42;;;;;;;;;;5058410;28;20040;-68
2022/11/16 12:35:34;;;;;;;4.05;1.95;;;;;;;;;;5053684;28;20361;-65
2022/11/16 12:38:15;;;;;;;5.72;1.92;;;;;;;;;;5053823;28;20083;-65
2022/11/16 12:40:55;;;;;;;;;;;;;;;;;;5054007;28;20040;-65
2022/11/16 12:43:41;;;;;;;4.28;2.10;;;;;;;;;;5053625;28;19919;-65
2022/11/16 12:46:24;;;;;;;4.40;1.80;;;;;;;;;;5063045;28;20030;-66
2022/11/16 12:49:11;;;;;;;3.17;1.88;;;;;;;;;;5072855;28;20025;-65
2022/11/16 12:51:46;;;;;;;4.50;2.47;;;;;;;;;;5073333;28;20032;-65
2022/11/16 12:54:28;;;;;;;7.38;2.58;;;;;;;;;;5059455;28;20479;-65
2022/11/16 12:57:15;;;;;;;6.68;3.25;;;;;;;;;;5068969;28;20364;-66
2022/11/16 13:00:05;;;;;;;10.27;3.60;;;;;;;;;;5068425;28;20506;-65
2022/11/16 13:02:45;;;;;;;6.63;2.80;;;;;;;;;;5068738;28;20028;-65
2022/11/16 13:05:21;;;;;;;12.05;2.95;;;;;;;;;;5069372;28;20024;-65
2022/11/16 13:08:15;;;;;;;9.70;3.30;;;;;;;;;;5068820;28;20121;-68
2022/11/16 13:10:45;;;;;;;7.68;3.85;;;;;;;;;;5026644;28;20029;-66
2022/11/16 13:13:20;;;;;;;8.20;3.53;;;;;;;;;;5028263;28;20579;-68
2022/11/16 13:15:46;;;;;;;4.10;2.63;;;;;;;;;;5025347;28;20116;-66
2022/11/16 13:18:16;;;;;;;6.20;3.30;;;;;;;;;;5026628;28;20045;-67
2022/11/16 13:20:50;;;;;;;7.18;4.13;;;;;;;;;;5025019;28;20543;-68
2022/11/16 13:23:24;;;;;;;4.78;3.08;;;;;;;;;;5027262;28;20083;-67
2022/11/16 13:25:57;;;;;;;8.73;3.75;;;;;;;;;;5026290;28;20519;-68
2022/11/16 13:28:38;;;;;;;12.30;3.88;;;;;;;;;;5026623;28;20080;-69
2022/11/16 13:31:13;;;;;;;6.95;3.70;;;;;;;;;;5026647;28;20056;-68
2022/11/16 13:33:47;;;;;;;7.18;3.60;;;;;;;;;;5026417;28;20041;-66
2022/11/16 13:36:31;;;;;;;11.30;4.47;;;;;;;;;;5025411;28;20084;-68
2022/11/16 13:38:56;;;;;;;5.80;2.75;;;;;;;;;;5026293;28;20045;-67
2022/11/16 13:41:29;;;;;;;6.93;3.33;;;;;;;;;;5026264;28;20037;-66
2022/11/16 13:43:55;;;;;;;9.52;4.10;;;;;;;;;;5024707;28;20032;-66
2022/11/16 13:46:21;;;;;;;9.15;4.13;;;;;;;;;;5026256;28;20026;-65
2022/11/16 13:48:47;;;;;;;6.85;2.85;;;;;;;;;;5066571;28;20116;-65
2022/11/16 13:51:19;;;;;;;8.23;4.22;;;;;;;;;;5069108;28;20465;-65
2022/11/16 13:53:49;;;;;;;7.65;3.53;;;;;;;;;;5066094;28;20017;-66
2022/11/16 13:56:15;;;;;;;;;;;;;;;;;;5068910;28;20029;-66
2022/11/16 13:58:47;;;;;;;7.97;3.30;;;;;;;;;;5067466;28;19919;-66
2022/11/16 14:01:14;;;;;;;4.97;2.25;;;;;;;;;;5067975;28;20096;-66
2022/11/16 14:03:44;;;;;;;6.78;3.05;;;;;;;;;;5069411;28;20434;-65
2022/11/16 14:06:12;;;;;;;7.13;3.10;;;;;;;;;;5068964;28;20493;-66
2022/11/16 14:08:37;;;;;;;5.28;3.33;;;;;;;;;;5067896;28;20028;-66
2022/11/16 14:11:04;;;;;;;4.00;2.38;;;;;;;;;;5068392;28;20043;-66
2022/11/16 14:13:47;;;;;;;6.22;2.10;;;;;;;;;;5067661;28;20060;-65
2022/11/16 14:16:18;;;;;;;3.60;2.30;;;;;;;;;;5068351;28;20108;-66
2022/11/16 14:18:52;;;;;;;4.32;2.05;;;;;;;;;;5067695;28;20029;-66
2022/11/16 14:21:18;;;;;;;4.43;2.22;;;;;;;;;;5068020;28;20056;-67
2022/11/16 14:23:52;;;;;;;6.47;2.35;;;;;;;;;;5067478;28;20102;-69
2022/11/16 14:26:24;;;;;;;5.57;2.00;;;;;;;;;;5067709;28;20047;-66
2022/11/16 14:29:21;;;;;;;6.70;2.00;;;;;;;;;;5067491;28;20029;-66
2022/11/16 14:31:53;;;;;;;5.10;2.20;;;;;;;;;;5068946;28;20029;-68
2022/11/16 14:34:23;;;;;;;3.80;2.00;;;;;;;;;;5071913;28;20028;-69
2022/11/16 14:36:49;;;;;;;3.78;1.98;;;;;;;;;;5072574;28;20032;-69
2022/11/16 14:39:42;;;;;;;3.65;1.85;;;;;;;;;;5072520;28;20506;-69
2022/11/16 14:42:30;;;;;;;3.30;1.60;;;;;;;;;;5072036;28;20056;-69
2022/11/16 14:45:10;;;;;;;3.67;1.75;;;;;;;;;;5072604;28;20479;-65
2022/11/16 14:47:36;;;;;;;4.05;2.10;;;;;;;;;;5071761;28;21560;-66
2022/11/16 14:50:03;;;;;;;4.68;1.77;;;;;;;;;;5071891;28;20025;-66
2022/11/16 14:52:35;;;;;;;3.90;2.17;;;;;;;;;;5071752;28;20024;-65
2022/11/16 14:55:06;;;;;;;5.13;2.92;;;;;;;;;;5070493;28;20118;-65
2022/11/16 14:57:31;;;;;;;;;;;;;;;;;;5071328;28;20040;-69
2022/11/16 15:00:08;;;;;;;;;;;;;;;;;;5072766;28;20337;-67
2022/11/16 15:02:35;;;;;;;;;;;;;;;;;;5072383;28;19920;-68
2022/11/16 15:05:00;;;;;;;;;;;;;;;;;;5071867;28;20476;-68
2022/11/16 15:07:27;;;;;;;;;;;;;;;;;;5072657;28;19912;-70
2022/11/16 15:09:54;;;;;;;;;;;;;;;;;;5071295;28;19916;-69
2022/11/16 15:12:41;;;;;;;;;;;;;;;;;;5072357;28;19916;-68
2022/11/16 15:15:07;;;;;;;;;;;;;;;;;;5071953;28;19920;-69
2022/11/16 15:17:33;;;;;;;;;;;;;;;;;;5071375;28;19922;-66
2022/11/16 15:20:00;;;;;;;;;;;;;;;;;;5071618;28;20497;-68
2022/11/16 15:22:27;;;;;;;;;;;;;;;;;;5071400;28;19913;-66
2022/11/16 15:24:56;;;;;;;;;;;;;;;;;;5071656;28;19912;-67
2022/11/16 15:27:31;;;;;;;;;;;;;;;;;;5071482;28;19912;-69
2022/11/16 15:29:58;;;;;;;;;;;;;;;;;;5071661;28;19912;-67
2022/11/16 15:32:23;;;;;;;;;;;;;;;;;;5070967;28;19913;-67
2022/11/16 15:34:50;;;;;;;;;;;;;;;;;;5071358;28;19991;-69
2022/11/16 15:37:25;;;;;;;;;;;;;;;;;;5071743;28;19924;-66
2022/11/16 15:39:50;;;;;;;;;;;;;;;;;;5070726;28;19942;-68
2022/11/16 15:42:16;;;;;;;;;;;;;;;;;;5070736;28;20014;-70
2022/11/16 15:44:41;;;;;;;;;;;;;;;;;;5069602;28;20283;-67
2022/11/16 15:47:09;;;;;;;;;;;;;;;;;;5070630;28;19935;-69
2022/11/16 15:49:36;;;;;;;;;;;;;;;;;;5070228;28;19912;-68